• Join FlightAware (Why Join?)
  • Login
  • US Flag GB Flag 
14:02 EST


 

Airport Tracker/Info


-or-


 

Live Flight TrackerFlight Track Log ✈ AAY843 ✈ 03-Jul-2014 ✈ KSYR - KPIE

Flight Track Log - Related Links

Times and Time Zones

All times are in EDT time to prevent confusion due to time zone crossing. See the AAY843 flight status page for this flight to view local times or setup timezone preferences in your user account.

Time Position Orientation Groundspeed Altitude Reporting Facility
EDT Latitude Longitude Course Direction KTS MPH feet Rate Location/Type
11:23 43.1081 -76.1422 257° West 182 209 1,500  Level Boston Center
11:24 43.0922 -76.2364 257° West 231 266 3,300 2,100 Climbing Boston Center
11:26 42.9903 -76.3239 212° Southwest 242 278 7,800 2,460 Climbing Boston Center
11:27 42.9250 -76.3781 211° Southwest 260 299 10,000 1,680 Climbing Boston Center
11:29 42.7564 -76.5108 210° Southwest 361 415 13,000 1,800 Climbing Boston Center
11:30 42.6675 -76.5844 211° Southwest 369 425 15,700 1,560 Climbing Boston Center
11:32 42.5375 -76.6872 210° Southwest 382 440 17,000 1,020 Climbing Cleveland Center
11:33 42.4217 -76.7711 208° Southwest 387 445 18,400 1,500 Climbing Cleveland Center
11:34 42.2681 -76.8894 210° Southwest 396 456 21,000 1,500 Climbing Boston Center
11:35 42.1703 -76.9647 210° Southwest 398 458 22,400 1,260 Climbing Boston Center
11:36 42.0700 -77.0439 210° Southwest 411 473 23,700 1,560 Climbing Boston Center
11:37 41.9731 -77.1261 212° Southwest 411 473 25,700 1,680 Climbing Boston Center
11:38 41.8758 -77.2111 213° Southwest 416 479 27,200 1,320 Climbing New York Center
11:39 41.7842 -77.2886 212° Southwest 405 466 28,500 1,020 Climbing New York Center
11:40 41.6861 -77.3650 210° Southwest 405 466 29,300 420 Climbing New York Center
11:43 41.4461 -77.5617 212° Southwest 400 460 30,000 300 Climbing Cleveland Center
11:45 41.2569 -77.7161 212° Southwest 401 461 30,800 480 Climbing Cleveland Center
11:47 41.0489 -77.8839 208° Southwest 400 460 32,000 360 Climbing Cleveland Center
11:48 40.9544 -77.9614 212° Southwest 399 459 32,000  Level Cleveland Center
11:49 40.8522 -78.0236 205° Southwest 403 464 32,000  Level Cleveland Center
11:50 40.7450 -78.0686 198° South 407 468 32,000  Level Cleveland Center
11:51 40.6369 -78.1128 197° South 407 468 32,000  Level Cleveland Center
11:53 40.4014 -78.2142 198° South 406 467 32,000  Level Cleveland Center
11:54 40.2956 -78.2642 200° South 406 467 32,000  Level Cleveland Center
11:55 40.1875 -78.3111 198° South 407 468 32,000  Level Cleveland Center
11:58 39.9389 -78.4167 197° South 407 468 32,000  Level Washington Center
11:58 39.8439 -78.4553 197° South 407 468 32,000  Level Cleveland Center
11:59 39.7386 -78.5017 199° South 407 468 32,000  Level Cleveland Center
12:01 39.6233 -78.5497 199° South 413 475 32,000  Level Washington Center
12:02 39.5158 -78.5911 197° South 408 470 32,000  Level Washington Center
12:03 39.4147 -78.6331 198° South 407 468 32,000  Level Cleveland Center
12:05 39.1936 -78.7303 199° South 408 470 32,000  Level Washington Center
12:07 38.9611 -78.8239 197° South 407 468 32,000  Level Cleveland Center
12:08 38.8533 -78.8675 197° South 406 467 32,000  Level Cleveland Center
12:12 38.4281 -79.0450 198° South 408 470 32,000  Level Washington Center
12:13 38.3203 -79.0906 198° South 408 470 32,000  Level Washington Center
12:14 38.2128 -79.1356 198° South 408 470 32,000  Level Washington Center
12:15 38.1053 -79.1753 196° South 408 470 32,000  Level Washington Center
12:16 37.9975 -79.2178 197° South 408 470 32,000  Level Washington Center
12:17 37.9064 -79.2382 198° South  Level FlightAware Approximate
12:17 37.8897 -79.2625 198° South 408 470 32,000  Level Washington Center
12:19 37.6808 -79.3442 197° South 408 470 32,000  Level Washington Center
12:21 37.4633 -79.4275 197° South 413 475 32,000  Level Washington Center
12:22 37.3492 -79.4717 197° South 424 488 32,000  Level Washington Center
12:23 37.2392 -79.5156 198° South 424 488 32,000  Level Washington Center
12:25 37.0194 -79.6031 198° South 419 482 32,000  Level Washington Center
12:26 36.9075 -79.6442 196° South 419 482 32,000  Level Washington Center
12:27 36.7953 -79.6900 198° South 424 488 32,000  Level Washington Center
12:28 36.6853 -79.7336 198° South 424 488 32,000  Level Washington Center
12:30 36.4653 -79.8175 197° South 424 488 32,000  Level Washington Center
12:30 36.3808 -79.8481 196° South 425 489 32,000  Level Atlanta Center
12:31 36.2800 -79.8844 196° South 431 496 32,000  Level Atlanta Center
12:32 36.1667 -79.9289 198° South 431 496 32,000  Level Atlanta Center
12:34 35.9425 -80.0247 202° Southwest 431 496 32,000  Level Atlanta Center
12:35 35.8361 -80.0839 204° Southwest 431 496 32,000  Level Atlanta Center
12:36 35.7253 -80.1403 202° Southwest 431 496 32,000  Level Atlanta Center
12:37 35.6161 -80.1917 201° Southwest 431 496 32,000  Level Atlanta Center
12:38 35.5072 -80.2450 202° Southwest 431 496 32,000  Level Atlanta Center
12:39 35.3922 -80.3014 202° Southwest 431 496 32,000  Level Atlanta Center
12:41 35.1722 -80.4131 202° Southwest 435 501 32,000  Level Atlanta Center
12:44 34.8147 -80.5917 202° Southwest 433 498 32,000  Level Jacksonville Center
12:46 34.5872 -80.7011 202° Southwest 437 503 32,000  Level Jacksonville Center
12:47 34.4714 -80.7619 203° Southwest 453 521 32,000  Level Jacksonville Center
12:49 34.2542 -80.8653 201° Southwest 437 503 32,000  Level Jacksonville Center
12:50 34.1403 -80.9206 202° Southwest 431 496 32,000  Level Jacksonville Center
12:51 34.0283 -80.9731 201° Southwest 431 496 32,000  Level Jacksonville Center
12:54 33.6803 -81.1456 202° Southwest 436 502 32,000  Level Jacksonville Center
12:55 33.5683 -81.2000 202° Southwest 436 502 32,000  Level Jacksonville Center
12:57 33.3381 -81.3114 202° Southwest 441 507 32,000  Level Jacksonville Center
12:59 33.1058 -81.4244 202° Southwest 452 520 32,000  Level Jacksonville Center
13:02 32.7569 -81.5958 201° Southwest 452 520 32,000  Level Jacksonville Center
13:03 32.6531 -81.6442 201° Southwest 447 514 32,000  Level Jacksonville Center
13:04 32.5264 -81.7075 203° Southwest 447 514 32,000  Level Jacksonville Center
13:06 32.2994 -81.7867 191° South 457 526 32,000  Level Jacksonville Center
13:07 32.1578 -81.8128 189° South 463 533 32,000  Level Jacksonville Center
13:08 32.2654 -81.8124 201° Southwest  Level FlightAware Approximate
13:08 32.0453 -81.8361 190° South 463 533 32,000  Level Jacksonville Center
13:09 31.9078 -81.8672 191° South 469 540 32,000  Level Jacksonville Center
13:14 31.2928 -82.0028 191° South 469 540 32,000  Level Jacksonville Center
13:15 31.1697 -82.0306 191° South 464 534 32,000  Level Jacksonville Center
13:17 30.9194 -82.0814 190° South 464 534 32,000  Level Jacksonville Center
13:19 30.6672 -82.1367 190° South 464 534 32,000  Level Jacksonville Center
13:20 30.7921 -82.0981 191° South  Level FlightAware Approximate
13:21 30.4067 -82.1869 189° South 464 534 32,000  Level Jacksonville Center
13:23 30.1583 -82.2367 190° South 457 526 32,000  Level Jacksonville Center
13:25 30.0329 -82.2563 188° South  Level FlightAware Approximate
13:25 29.9144 -82.2936 188° South 457 526 32,000  Level Jacksonville Center
13:26 29.7933 -82.3181 190° South 452 520 31,900 -1,560 Descending Jacksonville Center
13:28 29.6203 -82.3519 190° South 448 516 28,100 -2,400 Descending Miami Center
13:29 29.4156 -82.3419 178° South 447 514 24,800 -2,400 Descending Jacksonville Center
13:32 29.0953 -82.2983 174° South 440 506 18,300 -2,400 Descending Miami Center
13:33 28.9781 -82.2900 176° South 424 488 15,900 -2,160 Descending Miami Center
13:34 28.8628 -82.2783 175° South 399 459 13,900 -1,740 Descending Miami Center
13:35 28.8000 -82.2667 171° South 365 420 13,100 -1,200 Descending Tampa TRACON
13:36 28.6833 -82.2500 173° South 360 414 11,900 -1,080 Descending Tampa TRACON
13:37 28.5833 -82.2500 180° South 359 413 10,900 -540 Descending Tampa TRACON
13:40 28.4333 -82.4667 232° Southwest 334 384 9,900 -600 Descending Tampa TRACON
13:41 28.4167 -82.5500 257° West 279 321 8,700 -1,140 Descending Tampa TRACON
13:42 28.3192 -82.6386 219° Southwest 288 331 7,000 -1,500 Descending Miami Center
13:43 28.2269 -82.6489 186° South 278 320 4,800 -1,860 Descending Miami Center
13:44 28.1564 -82.6522 182° South 261 300 3,200 -1,260 Descending Miami Center
13:46 28.0667 -82.6667 188° South 223 257 2,000 -720 Descending Tampa TRACON
13:49 27.9422 -82.6953 187° South 174 200 400 -600 Descending Miami Center